Time;durP1;ratioP1;P1;durP2;ratioP2;P2;SDS_P1;SDS_P2;PMS_P1;PMS_P2;Temp;Humidity;BMP_temperature;BMP_pressure;BME280_temperature;BME280_humidity;BME280_pressure;Samples;Min_cycle;Max_cycle;Signal;HPM_P1;HPM_P2
2022/04/04 00:01:44;;;;;;;5.65;2.70;;;4.50;73.40;;;;;;5136977;28;20088;-67
2022/04/04 00:04:10;;;;;;;7.55;3.10;;;4.50;73.30;;;;;;5136917;28;20028;-67
2022/04/04 00:06:36;;;;;;;6.45;2.92;;;4.50;73.60;;;;;;5136860;28;20038;-66
2022/04/04 00:09:02;;;;;;;4.95;2.80;;;4.60;73.40;;;;;;5136857;28;20026;-66
2022/04/04 00:11:28;;;;;;;4.65;2.90;;;4.50;73.20;;;;;;5136752;28;20030;-66
2022/04/04 00:13:53;;;;;;;6.43;2.90;;;4.50;73.10;;;;;;5135704;28;20027;-67
2022/04/04 00:16:19;;;;;;;5.38;2.67;;;4.50;73.10;;;;;;5136650;28;20032;-67
2022/04/04 00:18:45;;;;;;;6.97;3.50;;;4.50;73.00;;;;;;5135555;28;20015;-67
2022/04/04 00:21:10;;;;;;;8.70;3.25;;;4.50;72.90;;;;;;5136612;27;20035;-66
2022/04/04 00:23:36;;;;;;;7.40;3.08;;;4.50;73.20;;;;;;5136421;28;20057;-67
2022/04/04 00:26:05;;;;;;;6.00;3.08;;;4.50;73.50;;;;;;5136490;28;20035;-66
2022/04/04 00:28:31;;;;;;;5.25;2.88;;;4.40;73.20;;;;;;5136388;28;20050;-66
2022/04/04 00:30:57;;;;;;;6.55;3.40;;;4.30;73.90;;;;;;5136402;28;20016;-67
2022/04/04 00:33:22;;;;;;;7.53;3.40;;;4.20;74.30;;;;;;5136149;28;20097;-67
2022/04/04 00:35:48;;;;;;;5.70;3.25;;;4.20;74.50;;;;;;5136295;28;20024;-66
2022/04/04 00:38:14;;;;;;;8.05;3.58;;;4.10;74.50;;;;;;5136237;28;20024;-67
2022/04/04 00:40:41;;;;;;;8.23;3.85;;;4.10;74.70;;;;;;5136201;28;20043;-67
2022/04/04 00:43:07;;;;;;;6.90;3.83;;;4.00;74.70;;;;;;5136056;27;20051;-67
2022/04/04 00:45:32;;;;;;;7.68;3.42;;;4.00;75.50;;;;;;5136074;28;20050;-67
2022/04/04 00:47:58;;;;;;;7.05;4.10;;;4.00;75.00;;;;;;5136011;28;20026;-67
2022/04/04 00:50:24;;;;;;;7.95;3.80;;;3.90;75.00;;;;;;5136000;28;20034;-67
2022/04/04 00:52:51;;;;;;;6.88;3.95;;;3.90;75.30;;;;;;5136056;28;20035;-67
2022/04/04 00:55:17;;;;;;;8.57;4.32;;;3.90;75.20;;;;;;5135941;28;20027;-66
2022/04/04 00:57:42;;;;;;;5.88;3.63;;;3.90;75.50;;;;;;5134837;28;20095;-67
2022/04/04 01:00:09;;;;;;;9.50;4.32;;;3.80;75.40;;;;;;5135793;28;20028;-67
2022/04/04 01:02:38;;;;;;;9.13;4.28;;;3.80;75.60;;;;;;5135713;28;20051;-67
2022/04/04 01:05:04;;;;;;;7.43;4.50;;;3.70;76.00;;;;;;5135730;28;20058;-67
2022/04/04 01:07:30;;;;;;;8.07;4.20;;;3.70;75.90;;;;;;5135666;28;20031;-66
2022/04/04 01:09:56;;;;;;;10.43;5.10;;;3.70;76.10;;;;;;5135630;28;20384;-67
2022/04/04 01:12:22;;;;;;;8.55;4.43;;;3.70;76.10;;;;;;5135547;28;20044;-67
2022/04/04 01:14:48;;;;;;;8.52;4.85;;;3.70;75.90;;;;;;5135694;28;20024;-67
2022/04/04 01:17:16;;;;;;;10.32;5.88;;;3.60;76.40;;;;;;5135494;28;20023;-67
2022/04/04 01:19:42;;;;;;;9.50;5.35;;;3.60;76.50;;;;;;5135402;28;20023;-67
2022/04/04 01:22:10;;;;;;;10.77;5.88;;;3.60;77.50;;;;;;5135312;28;20023;-67
2022/04/04 01:24:39;;;;;;;9.68;6.20;;;3.60;76.50;;;;;;5135343;28;20024;-67
2022/04/04 01:27:06;;;;;;;9.05;5.07;;;3.60;76.60;;;;;;5135279;27;20020;-67
2022/04/04 01:29:32;;;;;;;10.30;6.00;;;3.60;76.60;;;;;;5134237;28;20464;-67
2022/04/04 01:31:58;;;;;;;12.05;6.07;;;3.60;76.70;;;;;;5135154;28;20019;-67
2022/04/04 01:34:24;;;;;;;9.93;6.28;;;3.60;76.40;;;;;;5134956;28;20074;-66
2022/04/04 01:36:50;;;;;;;11.10;6.60;;;3.60;76.60;;;;;;5135079;28;20027;-67
2022/04/04 01:39:16;;;;;;;10.88;6.20;;;3.60;76.60;;;;;;5133977;28;20028;-67
2022/04/04 01:41:43;;;;;;;10.32;6.05;;;3.60;76.60;;;;;;5134975;28;20073;-66
2022/04/04 01:44:09;;;;;;;10.82;5.70;;;3.50;76.70;;;;;;5134858;28;20024;-67
2022/04/04 01:46:35;;;;;;;8.95;5.90;;;3.50;76.90;;;;;;5134894;28;20016;-67
2022/04/04 01:49:04;;;;;;;9.60;5.63;;;3.50;77.00;;;;;;5134850;28;20058;-67
2022/04/04 01:51:31;;;;;;;9.65;6.07;;;3.50;76.90;;;;;;5134947;28;20080;-67
2022/04/04 01:53:58;;;;;;;12.07;6.30;;;3.50;76.90;;;;;;5134749;28;20020;-67
2022/04/04 01:56:24;;;;;;;9.68;5.25;;;3.50;76.90;;;;;;5134709;28;20027;-67
2022/04/04 01:58:50;;;;;;;9.82;5.68;;;3.40;77.00;;;;;;5134683;28;20094;-67
2022/04/04 02:01:22;;;;;;;8.85;5.53;;;3.40;77.10;;;;;;5134593;28;20024;-67
2022/04/04 02:03:51;;;;;;;8.80;5.45;;;3.40;77.10;;;;;;5134654;28;20396;-67
2022/04/04 02:06:20;;;;;;;9.82;6.00;;;3.30;77.40;;;;;;5134535;28;20012;-67
2022/04/04 02:08:47;;;;;;;10.80;5.60;;;3.20;77.40;;;;;;5134066;28;20020;-67
2022/04/04 02:11:13;;;;;;;10.15;5.38;;;3.20;77.40;;;;;;5134425;28;20019;-67
2022/04/04 02:13:40;;;;;;;8.52;5.47;;;3.20;77.50;;;;;;5134405;28;20023;-67
2022/04/04 02:16:06;;;;;;;8.68;5.07;;;3.10;77.80;;;;;;5134306;28;20020;-66
2022/04/04 02:18:33;;;;;;;9.65;5.35;;;3.10;78.00;;;;;;5134393;28;20089;-67
2022/04/04 02:20:59;;;;;;;10.73;5.38;;;3.00;78.30;;;;;;5134295;28;20031;-67
2022/04/04 02:23:25;;;;;;;8.73;5.05;;;2.90;78.40;;;;;;5134171;28;20069;-67
2022/04/04 02:25:53;;;;;;;12.43;6.03;;;3.00;78.70;;;;;;5134194;28;20034;-67
2022/04/04 02:28:19;;;;;;;10.07;5.72;;;3.00;78.70;;;;;;5134115;28;20041;-67
2022/04/04 02:30:46;;;;;;;10.35;6.25;;;2.90;78.60;;;;;;5134107;28;20106;-67
2022/04/04 02:33:12;;;;;;;9.82;5.43;;;3.00;78.70;;;;;;5133984;28;20054;-67
2022/04/04 02:35:39;;;;;;;8.20;4.53;;;3.00;78.70;;;;;;5134037;28;20031;-66
2022/04/04 02:38:05;;;;;;;10.63;5.38;;;3.00;78.70;;;;;;5134023;28;20023;-67
2022/04/04 02:40:32;;;;;;;10.05;5.35;;;3.00;78.70;;;;;;5134000;28;20043;-67
2022/04/04 02:42:58;;;;;;;11.25;5.78;;;3.00;78.70;;;;;;5133989;28;20030;-67
2022/04/04 02:45:23;;;;;;;14.50;5.82;;;3.00;78.50;;;;;;5133935;28;20016;-67
2022/04/04 02:47:49;;;;;;;10.02;5.53;;;3.00;78.40;;;;;;5133916;28;20028;-67
2022/04/04 02:50:16;;;;;;;8.45;5.10;;;3.10;78.30;;;;;;5133875;28;20027;-67
2022/04/04 02:52:43;;;;;;;12.88;5.88;;;3.10;78.10;;;;;;5133871;28;20020;-67
2022/04/04 02:57:55;;;;;;;10.98;5.30;;;3.20;77.70;;;;;;5133220;28;20043;-67
2022/04/04 03:00:23;;;;;;;11.02;5.90;;;3.20;77.70;;;;;;5133779;28;20083;-67
2022/04/04 03:02:50;;;;;;;10.48;5.40;;;3.20;77.80;;;;;;5132693;28;20468;-67
2022/04/04 03:05:16;;;;;;;10.55;5.60;;;3.30;77.60;;;;;;5133734;28;20023;-67
2022/04/04 03:07:42;;;;;;;11.80;5.20;;;3.30;77.60;;;;;;5133677;28;20023;-67
2022/04/04 03:10:09;;;;;;;10.13;5.18;;;3.40;77.20;;;;;;5133694;28;20465;-67
2022/04/04 03:12:41;;;;;;;8.90;5.07;;;3.40;76.90;;;;;;5133649;28;20024;-67
2022/04/04 03:15:09;;;;;;;8.77;4.93;;;3.50;76.80;;;;;;5133737;28;20031;-67
2022/04/04 03:17:34;;;;;;;8.40;4.75;;;3.50;76.70;;;;;;5133589;28;20024;-67
2022/04/04 03:20:00;;;;;;;9.27;5.10;;;3.60;76.50;;;;;;5133606;28;20087;-67
2022/04/04 03:22:26;;;;;;;7.47;4.35;;;3.60;76.30;;;;;;5137173;28;20083;-67
2022/04/04 03:24:52;;;;;;;7.75;4.40;;;3.70;76.30;;;;;;5136876;28;20028;-67
2022/04/04 03:27:18;;;;;;;8.65;4.20;;;3.70;76.00;;;;;;5137638;28;20039;-67
2022/04/04 03:29:44;;;;;;;9.38;4.45;;;3.70;76.10;;;;;;5137480;28;20061;-67
2022/04/04 03:32:10;;;;;;;6.72;4.03;;;3.80;75.80;;;;;;5137348;28;20020;-67
2022/04/04 03:34:36;;;;;;;9.07;4.35;;;3.80;75.90;;;;;;5137512;28;20053;-67
2022/04/04 03:37:02;;;;;;;9.60;4.25;;;3.80;75.70;;;;;;5137460;28;20030;-67
2022/04/04 03:39:27;;;;;;;7.57;4.32;;;3.90;75.40;;;;;;5137360;28;20031;-67
2022/04/04 03:41:54;;;;;;;6.85;3.78;;;4.00;75.50;;;;;;5137467;28;20099;-67
2022/04/04 03:44:19;;;;;;;7.82;3.70;;;4.00;75.50;;;;;;5137204;28;20023;-67
2022/04/04 03:46:45;;;;;;;7.35;4.18;;;4.00;75.50;;;;;;5137214;28;20034;-67
2022/04/04 03:49:11;;;;;;;7.45;4.75;;;4.10;75.60;;;;;;5137255;28;20024;-67
2022/04/04 03:51:36;;;;;;;6.68;4.15;;;4.10;75.50;;;;;;5137151;28;20016;-67
2022/04/04 03:54:02;;;;;;;7.68;3.83;;;4.10;75.50;;;;;;5137259;28;20038;-67
2022/04/04 03:56:28;;;;;;;6.80;4.18;;;4.10;75.40;;;;;;5137083;28;20047;-67
2022/04/04 03:58:54;;;;;;;6.90;4.13;;;4.20;75.40;;;;;;5136051;28;20034;-66
2022/04/04 04:01:22;;;;;;;9.25;4.72;;;4.20;75.40;;;;;;5137007;28;20016;-67
2022/04/04 04:03:47;;;;;;;6.82;3.90;;;4.20;75.10;;;;;;5136892;28;20027;-67
2022/04/04 04:06:14;;;;;;;9.68;4.60;;;4.20;75.10;;;;;;5136846;28;20024;-67
2022/04/04 04:08:42;;;;;;;9.20;3.97;;;4.20;75.00;;;;;;5136841;28;20016;-67
2022/04/04 04:11:08;;;;;;;9.80;4.80;;;4.20;75.20;;;;;;5136806;28;20045;-66
2022/04/04 04:13:35;;;;;;;9.90;3.83;;;4.30;75.20;;;;;;5136740;28;20085;-67
2022/04/04 04:16:02;;;;;;;6.65;3.63;;;4.20;75.20;;;;;;5136723;28;20035;-67
2022/04/04 04:18:29;;;;;;;8.00;4.13;;;4.20;75.30;;;;;;5136657;28;20024;-67
2022/04/04 04:20:55;;;;;;;10.35;4.32;;;4.20;75.50;;;;;;5136586;28;20015;-66
2022/04/04 04:23:21;;;;;;;8.15;3.83;;;4.20;75.40;;;;;;5136479;28;20028;-66
2022/04/04 04:25:47;;;;;;;7.55;4.30;;;4.20;75.50;;;;;;5135588;28;20045;-66
2022/04/04 04:28:13;;;;;;;8.48;4.68;;;4.20;75.30;;;;;;5136376;28;20060;-67
2022/04/04 04:30:40;;;;;;;8.35;3.83;;;4.30;75.40;;;;;;5136412;28;20032;-67
2022/04/04 04:33:07;;;;;;;11.23;4.40;;;4.20;75.40;;;;;;5135916;28;20107;-67
2022/04/04 04:35:33;;;;;;;8.68;4.68;;;4.30;75.60;;;;;;5136309;28;20472;-67
2022/04/04 04:38:00;;;;;;;7.40;4.00;;;4.30;75.70;;;;;;5136278;28;20030;-67
2022/04/04 04:40:27;;;;;;;8.70;4.55;;;4.30;75.80;;;;;;5136208;27;20032;-67
2022/04/04 04:42:54;;;;;;;9.55;4.43;;;4.30;76.20;;;;;;5136074;28;20038;-67
2022/04/04 04:45:20;;;;;;;8.55;4.22;;;4.20;76.40;;;;;;5136116;28;20024;-67
2022/04/04 04:47:47;;;;;;;12.45;4.05;;;4.20;76.50;;;;;;5136087;28;20423;-67
2022/04/04 04:50:16;;;;;;;7.85;4.55;;;4.20;76.90;;;;;;5135986;28;20029;-67
2022/04/04 04:52:45;;;;;;;7.80;3.95;;;4.20;77.10;;;;;;5135985;28;20046;-67
2022/04/04 04:55:13;;;;;;;8.88;4.47;;;4.20;77.90;;;;;;5135048;28;20087;-66
2022/04/04 04:57:39;;;;;;;6.57;3.63;;;4.20;78.30;;;;;;5135865;28;20028;-67
2022/04/04 05:00:08;;;;;;;10.05;4.88;;;4.20;77.50;;;;;;5135870;28;20030;-67
2022/04/04 05:02:34;;;;;;;8.45;4.80;;;4.20;77.50;;;;;;5135826;28;20024;-67
2022/04/04 05:05:00;;;;;;;11.15;4.90;;;4.20;77.50;;;;;;5135748;27;20020;-67
2022/04/04 05:07:26;;;;;;;8.05;4.80;;;4.20;77.40;;;;;;5135713;28;20016;-67
2022/04/04 05:09:52;;;;;;;9.40;4.25;;;4.20;77.40;;;;;;5135803;28;20071;-67
2022/04/04 05:12:18;;;;;;;9.95;5.18;;;4.30;77.30;;;;;;5135602;28;20027;-67
2022/04/04 05:14:43;;;;;;;9.73;4.50;;;4.30;77.30;;;;;;5135531;28;20020;-67
2022/04/04 05:17:09;;;;;;;8.10;4.30;;;4.40;77.30;;;;;;5135481;28;20039;-67
2022/04/04 05:19:36;;;;;;;9.18;5.13;;;4.30;77.30;;;;;;5134496;28;20024;-67
2022/04/04 05:22:02;;;;;;;14.02;5.05;;;4.40;77.60;;;;;;5135426;28;20034;-67
2022/04/04 05:24:27;;;;;;;10.13;4.63;;;4.40;77.70;;;;;;5135294;28;20024;-67
2022/04/04 05:26:54;;;;;;;8.27;4.28;;;4.40;77.80;;;;;;5134335;28;20028;-67
2022/04/04 05:29:20;;;;;;;10.15;5.38;;;4.40;77.60;;;;;;5135228;28;20079;-67
2022/04/04 05:31:45;;;;;;;8.63;4.03;;;4.40;77.70;;;;;;5135193;28;20020;-67
2022/04/04 05:34:12;;;;;;;9.13;4.82;;;4.40;77.80;;;;;;5134940;28;20047;-67
2022/04/04 05:36:38;;;;;;;12.70;5.10;;;4.50;78.00;;;;;;5135097;28;20147;-67
2022/04/04 05:39:06;;;;;;;11.68;5.45;;;4.50;77.50;;;;;;5135040;28;20051;-67
2022/04/04 05:41:32;;;;;;;13.40;5.38;;;4.60;77.90;;;;;;5135014;28;20023;-67
2022/04/04 05:43:58;;;;;;;9.80;5.28;;;4.60;77.80;;;;;;5134121;28;20031;-68
2022/04/04 05:46:24;;;;;;;10.43;5.88;;;4.60;77.90;;;;;;5134896;28;20032;-67
2022/04/04 05:48:50;;;;;;;8.50;5.18;;;4.60;77.60;;;;;;5134822;27;20016;-67
2022/04/04 05:51:17;;;;;;;10.88;5.22;;;4.60;77.50;;;;;;5134808;28;20024;-68
2022/04/04 05:53:44;;;;;;;8.38;5.13;;;4.70;77.70;;;;;;5134808;28;20028;-69
2022/04/04 05:56:10;;;;;;;11.98;5.13;;;4.70;78.60;;;;;;5134727;28;20028;-68
2022/04/04 05:58:36;;;;;;;12.70;5.78;;;4.70;77.60;;;;;;5133714;28;20048;-67
2022/04/04 06:01:02;;;;;;;8.48;5.10;;;4.70;77.60;;;;;;5134711;28;20061;-66
2022/04/04 06:03:28;;;;;;;10.88;5.82;;;4.70;77.20;;;;;;5133619;28;20053;-66
2022/04/04 06:05:54;;;;;;;9.77;5.53;;;4.80;77.40;;;;;;5134488;28;20028;-66
2022/04/04 06:08:20;;;;;;;13.23;6.43;;;4.80;77.20;;;;;;5134532;28;20032;-68
2022/04/04 06:10:46;;;;;;;12.57;5.07;;;4.90;77.90;;;;;;5134471;28;20012;-67
2022/04/04 06:13:19;;;;;;;12.15;5.88;;;4.90;77.70;;;;;;5134539;28;20034;-67
2022/04/04 06:15:45;;;;;;;12.45;7.05;;;4.90;78.40;;;;;;5134372;28;20027;-66
2022/04/04 06:18:12;;;;;;;10.02;5.47;;;5.00;77.30;;;;;;5134365;28;20031;-68
2022/04/04 06:20:39;;;;;;;11.10;5.93;;;5.00;77.40;;;;;;5134378;28;20499;-68
2022/04/04 06:23:05;;;;;;;10.98;6.28;;;5.10;76.90;;;;;;5134192;28;20019;-68
2022/04/04 06:25:31;;;;;;;9.73;5.10;;;5.10;76.80;;;;;;5134167;28;20028;-67
2022/04/04 06:27:58;;;;;;;10.30;5.28;;;5.10;76.30;;;;;;5134142;28;20020;-67
2022/04/04 06:30:24;;;;;;;13.90;6.65;;;5.20;76.40;;;;;;5134144;28;20028;-67
2022/04/04 06:32:49;;;;;;;11.43;5.60;;;5.20;76.00;;;;;;5133921;28;20047;-68
2022/04/04 06:35:16;;;;;;;11.68;5.93;;;5.30;75.90;;;;;;5134012;28;20039;-68
2022/04/04 06:37:43;;;;;;;12.48;6.07;;;5.30;75.50;;;;;;5134046;28;20053;-67
2022/04/04 06:40:10;;;;;;;11.20;5.93;;;5.40;75.20;;;;;;5133954;28;20024;-66
2022/04/04 06:42:37;;;;;;;11.10;6.13;;;5.40;75.30;;;;;;5132787;28;20020;-67
2022/04/04 06:45:04;;;;;;;9.38;5.47;;;5.50;74.60;;;;;;5133950;28;20083;-68
2022/04/04 06:47:31;;;;;;;11.57;5.40;;;5.50;75.20;;;;;;5133928;28;20024;-68
2022/04/04 06:49:57;;;;;;;10.48;5.57;;;5.60;73.90;;;;;;5133897;28;20020;-68
2022/04/04 06:52:23;;;;;;;10.63;5.60;;;5.60;74.30;;;;;;5133791;28;20031;-68
2022/04/04 06:54:49;;;;;;;10.38;5.25;;;5.60;73.40;;;;;;5132745;28;20020;-67
2022/04/04 06:57:15;;;;;;;13.30;6.28;;;5.60;73.10;;;;;;5133795;28;20028;-68
2022/04/04 06:59:42;;;;;;;10.48;5.57;;;5.70;72.70;;;;;;5133900;28;20043;-67
2022/04/04 07:02:08;;;;;;;12.77;5.80;;;5.70;73.10;;;;;;5132720;28;20024;-66
2022/04/04 07:04:34;;;;;;;11.77;5.75;;;5.70;73.00;;;;;;5133662;28;20042;-67
2022/04/04 07:07:00;;;;;;;10.85;5.10;;;5.80;72.60;;;;;;5133728;28;20024;-67
2022/04/04 07:09:26;;;;;;;12.95;6.22;;;5.70;72.50;;;;;;5133654;28;20019;-68
2022/04/04 07:11:51;;;;;;;9.93;5.28;;;5.80;72.60;;;;;;5133722;28;20043;-68
2022/04/04 07:14:18;;;;;;;9.60;5.03;;;5.80;72.50;;;;;;5132561;28;20031;-68
2022/04/04 07:16:44;;;;;;;10.90;6.13;;;5.80;72.80;;;;;;5133797;28;20027;-65
2022/04/04 07:19:15;;;;;;;15.73;6.28;;;5.90;72.60;;;;;;5133608;28;20059;-67
2022/04/04 07:21:42;;;;;;;13.57;6.57;;;5.90;72.50;;;;;;5133721;28;20054;-68
2022/04/04 07:24:07;;;;;;;11.15;5.43;;;5.90;72.40;;;;;;5133512;28;20110;-68
2022/04/04 07:26:33;;;;;;;12.15;5.97;;;6.00;71.80;;;;;;5133506;28;20032;-68
2022/04/04 07:28:59;;;;;;;8.35;4.47;;;6.00;72.20;;;;;;5132582;28;20050;-67
2022/04/04 07:31:25;;;;;;;11.70;4.40;;;6.00;71.30;;;;;;5133604;28;20084;-67
2022/04/04 07:33:51;;;;;;;8.85;5.03;;;6.00;71.80;;;;;;5133323;28;20546;-67
2022/04/04 07:36:17;;;;;;;11.15;6.47;;;6.00;71.70;;;;;;5133423;28;20032;-67
2022/04/04 07:38:42;;;;;;;11.43;5.80;;;6.00;72.20;;;;;;5133483;28;20023;-66
2022/04/04 07:41:08;;;;;;;10.75;5.88;;;6.10;72.50;;;;;;5133443;28;20051;-65
2022/04/04 07:43:34;;;;;;;10.63;6.35;;;6.10;71.70;;;;;;5133273;28;20557;-65
2022/04/04 07:45:59;;;;;;;14.77;6.25;;;6.20;72.30;;;;;;5133353;28;20016;-65
2022/04/04 07:48:25;;;;;;;10.75;5.82;;;6.20;71.70;;;;;;5133359;28;20103;-66
2022/04/04 07:50:51;;;;;;;11.15;5.85;;;6.30;71.60;;;;;;5133414;28;20027;-67
2022/04/04 07:53:17;;;;;;;11.15;6.13;;;6.30;71.30;;;;;;5132394;28;20024;-68
2022/04/04 07:55:43;;;;;;;12.15;6.03;;;6.40;71.30;;;;;;5133305;28;20027;-67
2022/04/04 07:58:09;;;;;;;9.05;5.03;;;6.40;70.80;;;;;;5133244;28;20028;-66
2022/04/04 08:00:35;;;;;;;7.90;4.78;;;6.40;70.50;;;;;;5133223;28;20028;-66
2022/04/04 08:03:02;;;;;;;8.85;5.53;;;6.50;70.60;;;;;;5133150;28;20045;-65
2022/04/04 08:05:28;;;;;;;11.32;5.30;;;6.50;71.20;;;;;;5133212;28;20039;-65
2022/04/04 08:07:53;;;;;;;11.50;5.70;;;6.50;69.80;;;;;;5134658;28;20058;-65
2022/04/04 08:10:19;;;;;;;9.32;5.75;;;6.50;70.30;;;;;;5136819;28;20027;-66
2022/04/04 08:12:46;;;;;;;13.57;5.32;;;6.60;69.70;;;;;;5136781;28;20365;-65
2022/04/04 08:15:12;;;;;;;9.38;5.78;;;6.60;70.10;;;;;;5136771;28;20079;-66
2022/04/04 08:17:38;;;;;;;11.05;5.50;;;6.60;69.60;;;;;;5136819;27;20043;-66
2022/04/04 08:20:04;;;;;;;13.25;5.22;;;6.70;69.60;;;;;;5136635;28;20027;-65
2022/04/04 08:22:30;;;;;;;12.10;6.30;;;6.60;70.20;;;;;;5136526;28;20089;-65
2022/04/04 08:24:56;;;;;;;10.45;4.80;;;6.70;70.30;;;;;;5136685;28;20023;-66
2022/04/04 08:27:24;;;;;;;9.65;4.50;;;6.70;69.30;;;;;;5136473;28;20027;-65
2022/04/04 08:29:51;;;;;;;17.83;6.90;;;6.70;70.40;;;;;;5136486;28;20089;-66
2022/04/04 08:32:17;;;;;;;8.13;5.07;;;6.80;70.20;;;;;;5135439;28;20028;-66
2022/04/04 08:34:43;;;;;;;10.75;5.55;;;6.80;70.00;;;;;;5136245;28;20073;-66
2022/04/04 08:37:08;;;;;;;13.68;5.90;;;6.90;70.40;;;;;;5136283;28;20031;-66
2022/04/04 08:39:34;;;;;;;11.38;5.65;;;6.90;70.10;;;;;;5136269;28;20056;-66
2022/04/04 08:42:02;;;;;;;12.02;6.18;;;6.90;71.30;;;;;;5135387;28;20027;-66
2022/04/04 08:44:28;;;;;;;11.02;6.20;;;7.00;71.10;;;;;;5136121;28;20020;-65
2022/04/04 08:46:54;;;;;;;9.63;6.80;;;7.00;71.20;;;;;;5136113;28;20028;-65
2022/04/04 08:49:20;;;;;;;8.82;5.22;;;7.00;70.50;;;;;;5136156;28;20480;-66
2022/04/04 08:51:48;;;;;;;10.10;5.57;;;7.10;69.80;;;;;;5136053;28;20147;-66
2022/04/04 08:54:13;;;;;;;11.02;5.60;;;7.10;69.90;;;;;;5135989;28;20047;-65
2022/04/04 08:56:39;;;;;;;14.23;6.28;;;7.10;69.80;;;;;;5134873;28;20027;-66
2022/04/04 08:59:05;;;;;;;11.52;5.82;;;7.20;69.40;;;;;;5135884;28;20027;-66
2022/04/04 09:01:31;;;;;;;10.10;5.63;;;7.20;69.50;;;;;;5135844;28;20059;-66
2022/04/04 09:03:59;;;;;;;8.63;4.93;;;7.20;69.50;;;;;;5135867;28;20050;-65
2022/04/04 09:06:28;;;;;;;8.60;5.13;;;7.30;68.90;;;;;;5135690;28;20024;-66
2022/04/04 09:08:55;;;;;;;9.90;6.38;;;7.30;68.50;;;;;;5135679;28;20518;-66
2022/04/04 09:11:21;;;;;;;8.27;4.53;;;7.40;68.50;;;;;;5135725;28;20050;-66
2022/04/04 09:14:08;;;;;;;10.95;6.00;;;7.40;69.00;;;;;;5135563;28;20027;-66
2022/04/04 09:16:34;;;;;;;8.18;4.22;;;7.50;67.50;;;;;;5135643;28;20027;-66
2022/04/04 09:19:00;;;;;;;8.02;4.28;;;7.50;67.10;;;;;;5134389;28;20024;-66
2022/04/04 09:21:25;;;;;;;10.68;5.72;;;7.50;66.80;;;;;;5135574;28;20046;-66
2022/04/04 09:23:55;;;;;;;11.65;5.47;;;7.60;66.70;;;;;;5135467;28;20115;-66
2022/04/04 09:26:43;;;;;;;11.35;5.68;;;7.50;67.10;;;;;;5135482;27;20057;-66
2022/04/04 09:29:24;;;;;;;10.98;5.25;;;7.60;67.40;;;;;;5135311;28;20027;-66
2022/04/04 09:31:59;;;;;;;11.93;6.22;;;7.60;68.10;;;;;;5134385;28;20027;-66
2022/04/04 09:34:25;;;;;;;10.85;4.97;;;7.50;67.80;;;;;;5135217;28;20047;-66
2022/04/04 09:36:51;;;;;;;11.68;6.20;;;7.60;68.20;;;;;;5135297;28;20089;-66
2022/04/04 09:39:17;;;;;;;13.65;5.43;;;7.60;68.80;;;;;;5135094;28;20024;-66
2022/04/04 09:41:43;;;;;;;11.60;6.28;;;7.50;69.90;;;;;;5135096;28;20054;-66
2022/04/04 09:44:11;;;;;;;9.38;5.50;;;7.40;71.30;;;;;;5134971;28;20032;-66
2022/04/04 09:46:44;;;;;;;9.65;5.65;;;7.40;72.00;;;;;;5135105;28;20051;-66
2022/04/04 09:49:16;;;;;;;12.20;6.68;;;7.40;72.70;;;;;;5135029;28;20027;-66
2022/04/04 09:51:44;;;;;;;17.45;6.70;;;7.30;73.70;;;;;;5134923;28;20012;-66
2022/04/04 09:54:14;;;;;;;6.95;4.68;;;7.20;74.70;;;;;;5134796;28;20027;-66
2022/04/04 09:56:40;;;;;;;10.02;5.57;;;7.10;75.00;;;;;;5134898;28;20020;-66
2022/04/04 09:59:07;;;;;;;15.00;7.95;;;7.20;75.80;;;;;;5134714;28;20024;-66
2022/04/04 10:01:33;;;;;;;15.23;7.13;;;7.10;76.80;;;;;;5134700;28;20476;-66
2022/04/04 10:04:01;;;;;;;11.77;6.78;;;7.10;77.30;;;;;;5134515;28;20039;-66
2022/04/04 10:06:28;;;;;;;12.18;7.20;;;7.10;77.70;;;;;;5134597;28;20020;-66
2022/04/04 10:08:59;;;;;;;13.85;7.38;;;7.10;77.20;;;;;;5134588;28;20026;-66
2022/04/04 10:11:25;;;;;;;16.67;7.43;;;7.00;77.80;;;;;;5134619;28;20030;-66
2022/04/04 10:13:54;;;;;;;13.77;7.35;;;7.00;78.30;;;;;;5134401;28;20030;-66
2022/04/04 10:16:24;;;;;;;13.13;6.40;;;7.00;78.60;;;;;;5134425;28;20080;-66
2022/04/04 10:18:55;;;;;;;15.05;8.68;;;6.90;78.70;;;;;;5134464;28;20081;-66
2022/04/04 10:21:21;;;;;;;12.73;7.68;;;6.90;79.40;;;;;;5134373;28;20434;-66
2022/04/04 10:23:57;;;;;;;15.57;8.25;;;6.90;81.00;;;;;;5134253;28;20087;-65
2022/04/04 10:26:31;;;;;;;12.35;7.93;;;7.00;80.80;;;;;;5134338;28;20052;-65
2022/04/04 10:29:36;;;;;;;13.75;7.85;;;6.90;80.00;;;;;;5134207;28;20041;-66
2022/04/04 10:32:03;;;;;;;12.20;6.97;;;6.90;81.60;;;;;;5125230;28;20032;-66
2022/04/04 10:34:29;;;;;;;19.90;8.82;;;6.90;81.70;;;;;;5134010;28;20048;-67
2022/04/04 10:37:00;;;;;;;15.77;6.82;;;6.90;82.60;;;;;;5134069;28;20496;-67
2022/04/04 10:39:40;;;;;;;14.23;7.55;;;6.90;83.00;;;;;;5134159;28;20032;-65
2022/04/04 10:42:27;;;;;;;11.85;7.35;;;6.90;82.30;;;;;;5134058;28;20026;-66
2022/04/04 10:45:00;;;;;;;14.70;7.13;;;7.00;82.60;;;;;;5134041;28;20028;-66
2022/04/04 10:47:28;;;;;;;10.02;5.88;;;7.00;82.40;;;;;;5133907;28;20020;-66
2022/04/04 10:49:56;;;;;;;15.30;7.03;;;7.00;82.20;;;;;;5133884;28;20307;-66
2022/04/04 10:52:39;;;;;;;13.65;7.88;;;7.00;82.10;;;;;;5132876;28;20028;-65
2022/04/04 10:55:27;;;;;;;11.68;7.20;;;7.00;83.60;;;;;;5133895;28;20057;-65
2022/04/04 10:58:09;;;;;;;10.70;7.35;;;7.00;83.40;;;;;;5133896;28;20028;-65
2022/04/04 11:00:52;;;;;;;14.45;8.35;;;7.00;84.00;;;;;;5133957;28;20083;-65
2022/04/04 11:03:26;;;;;;;17.70;8.13;;;6.90;84.40;;;;;;5133678;28;20023;-65
2022/04/04 11:09:04;;;;;;;15.80;7.57;;;6.90;85.60;;;;;;5133961;28;20069;-65
2022/04/04 11:11:45;;;;;;;11.18;6.38;;;6.90;86.30;;;;;;5133705;28;20031;-65
2022/04/04 11:14:39;;;;;;;13.38;7.60;;;6.90;86.50;;;;;;5133757;28;20054;-64
2022/04/04 11:20:31;;;;;;;14.45;7.18;;;6.80;87.80;;;;;;5133684;28;20086;-65
2022/04/04 11:22:59;;;;;;;17.75;9.20;;;6.80;87.90;;;;;;5133584;28;20023;-65
2022/04/04 11:25:29;;;;;;;8.95;5.32;;;6.80;87.90;;;;;;5133563;28;20016;-65
2022/04/04 11:27:57;;;;;;;13.77;7.82;;;6.70;88.40;;;;;;5133478;28;20024;-64
2022/04/04 11:30:25;;;;;;;11.43;6.53;;;6.70;88.60;;;;;;5133549;28;20016;-64
2022/04/04 11:32:54;;;;;;;13.20;6.40;;;6.80;88.00;;;;;;5133334;28;20051;-65
2022/04/04 11:35:31;;;;;;;12.43;7.38;;;6.80;88.40;;;;;;5133538;28;20050;-65
2022/04/04 11:38:07;;;;;;;12.20;7.97;;;6.80;88.60;;;;;;5133518;28;20088;-65
2022/04/04 11:40:38;;;;;;;9.70;5.95;;;6.80;88.60;;;;;;5133633;28;20027;-66
2022/04/04 11:43:16;;;;;;;9.18;5.22;;;6.80;88.60;;;;;;5136315;28;20030;-65
2022/04/04 11:45:43;;;;;;;8.88;5.63;;;6.80;88.10;;;;;;5137381;28;20027;-66
2022/04/04 11:48:16;;;;;;;10.52;5.00;;;6.80;88.70;;;;;;5137274;28;20031;-65
2022/04/04 11:50:42;;;;;;;12.40;7.03;;;6.80;88.70;;;;;;5137272;28;20023;-66
2022/04/04 11:53:14;;;;;;;9.73;5.75;;;6.80;88.70;;;;;;5137358;28;20024;-66
2022/04/04 11:55:42;;;;;;;10.10;6.77;;;6.70;87.80;;;;;;5137163;28;20061;-66
2022/04/04 11:58:12;;;;;;;21.73;8.75;;;6.70;89.30;;;;;;5137108;28;20027;-66
2022/04/04 12:00:40;;;;;;;21.48;10.60;;;6.70;88.90;;;;;;5135813;28;20019;-66
2022/04/04 12:03:10;;;;;;;11.40;6.32;;;6.70;88.40;;;;;;5135950;28;20023;-66
2022/04/04 12:05:36;;;;;;;9.38;5.57;;;6.70;89.30;;;;;;5136975;28;20019;-66
2022/04/04 12:08:03;;;;;;;13.68;7.15;;;6.70;88.40;;;;;;5136920;28;20059;-66
2022/04/04 12:10:31;;;;;;;10.45;6.22;;;6.70;89.90;;;;;;5136873;28;20012;-66
2022/04/04 12:13:21;;;;;;;10.45;6.90;;;6.60;89.50;;;;;;5136808;28;20384;-66
2022/04/04 12:15:53;;;;;;;10.35;6.70;;;6.60;89.50;;;;;;5136739;27;20020;-66
2022/04/04 12:18:29;;;;;;;12.52;6.60;;;6.50;89.90;;;;;;5136760;28;20023;-65
2022/04/04 12:20:58;;;;;;;9.02;5.40;;;6.50;89.50;;;;;;5136808;28;20016;-65
2022/04/04 12:26:12;;;;;;;12.13;6.65;;;6.50;90.20;;;;;;5136834;28;20054;-66
2022/04/04 12:28:39;;;;;;;12.90;7.20;;;6.50;90.40;;;;;;5136485;28;20039;-66
2022/04/04 12:31:12;;;;;;;10.68;6.07;;;6.50;90.30;;;;;;5136359;28;20035;-65
2022/04/04 12:33:38;;;;;;;10.82;6.85;;;6.50;90.30;;;;;;5136236;28;20051;-65
2022/04/04 12:36:05;;;;;;;9.63;6.45;;;6.50;90.20;;;;;;5136337;28;20069;-65
2022/04/04 12:38:34;;;;;;;13.07;7.03;;;6.50;90.50;;;;;;5136287;28;20023;-66
2022/04/04 12:41:23;;;;;;;12.85;6.80;;;6.50;90.70;;;;;;5136291;28;20016;-66
2022/04/04 12:43:59;;;;;;;9.93;5.72;;;6.50;90.40;;;;;;5135942;28;20036;-66
2022/04/04 12:46:30;;;;;;;9.77;6.28;;;6.60;90.40;;;;;;5136256;27;20030;-66
2022/04/04 12:49:07;;;;;;;10.27;6.35;;;6.50;90.40;;;;;;5136187;28;20031;-66
2022/04/04 12:51:32;;;;;;;16.20;8.23;;;6.50;90.60;;;;;;5136153;28;20023;-66
2022/04/04 12:54:01;;;;;;;12.98;6.93;;;6.50;90.90;;;;;;5135900;28;20054;-66
2022/04/04 12:56:28;;;;;;;15.90;7.53;;;6.50;90.80;;;;;;5135988;28;20023;-66
2022/04/04 12:59:08;;;;;;;15.90;7.18;;;6.50;90.90;;;;;;5135913;28;20023;-66
2022/04/04 13:01:35;;;;;;;15.07;8.68;;;6.50;90.70;;;;;;5135915;28;20090;-66
2022/04/04 13:04:07;;;;;;;12.13;6.85;;;6.60;90.90;;;;;;5135876;27;20019;-65
2022/04/04 13:06:33;;;;;;;9.60;5.32;;;6.60;90.90;;;;;;5135916;28;20023;-66